Time;durP1;ratioP1;P1;durP2;ratioP2;P2;SDS_P1;SDS_P2;PMS_P1;PMS_P2;Temp;Humidity;BMP_temperature;BMP_pressure;BME280_temperature;BME280_humidity;BME280_pressure;Samples;Min_cycle;Max_cycle;Signal;HPM_P1;HPM_P2
2022/03/01 00:00:07;;;;;;;14.40;7.80;;;2.20;99.90;;;;;;5103381;28;20199;-51
2022/03/01 00:02:40;;;;;;;13.47;6.97;;;2.20;99.90;;;;;;5087436;28;20322;-45
2022/03/01 00:05:07;;;;;;;13.57;7.90;;;2.20;99.90;;;;;;5102715;28;20189;-47
2022/03/01 00:07:35;;;;;;;16.50;8.83;;;2.20;99.90;;;;;;5094072;28;20195;-46
2022/03/01 00:10:02;;;;;;;16.33;8.57;;;2.10;99.90;;;;;;5103163;28;20664;-46
2022/03/01 00:12:29;;;;;;;14.20;7.93;;;2.10;99.90;;;;;;5092856;28;20193;-46
2022/03/01 00:14:56;;;;;;;12.57;7.87;;;2.10;99.90;;;;;;5091139;28;20196;-47
2022/03/01 00:17:23;;;;;;;13.10;7.17;;;2.10;99.90;;;;;;5098574;28;20724;-47
2022/03/01 00:19:49;;;;;;;15.83;8.50;;;2.10;99.90;;;;;;5089254;28;20232;-46
2022/03/01 00:22:16;;;;;;;15.43;7.43;;;2.00;99.90;;;;;;5095213;28;20219;-50
2022/03/01 00:24:44;;;;;;;15.53;8.07;;;2.00;99.90;;;;;;5101308;28;20965;-46
2022/03/01 00:27:11;;;;;;;12.43;7.27;;;2.00;99.90;;;;;;5101822;28;20196;-51
2022/03/01 00:29:38;;;;;;;15.10;7.90;;;2.00;99.90;;;;;;5090312;28;21656;-46
2022/03/01 00:32:05;;;;;;;13.60;7.77;;;2.00;99.90;;;;;;5099878;28;20225;-46
2022/03/01 00:34:32;;;;;;;15.00;8.03;;;2.00;99.90;;;;;;5084494;28;23236;-49
2022/03/01 00:36:59;;;;;;;12.77;7.80;;;2.00;99.90;;;;;;5102137;28;20540;-50
2022/03/01 00:39:25;;;;;;;12.17;8.03;;;2.00;99.90;;;;;;5093382;28;20203;-47
2022/03/01 00:41:53;;;;;;;14.07;7.47;;;2.00;99.90;;;;;;5103020;28;20236;-48
2022/03/01 00:44:20;;;;;;;14.40;7.23;;;2.00;99.90;;;;;;5093503;28;20204;-45
2022/03/01 00:46:46;;;;;;;14.67;8.07;;;2.00;99.90;;;;;;5096970;28;20243;-47
2022/03/01 00:49:14;;;;;;;13.50;7.27;;;1.90;99.90;;;;;;5095275;28;20205;-46
2022/03/01 00:51:41;;;;;;;13.53;7.00;;;1.90;99.90;;;;;;5094765;28;20234;-52
2022/03/01 00:54:08;;;;;;;14.20;7.33;;;1.90;99.90;;;;;;5096809;28;20203;-47
2022/03/01 00:56:36;;;;;;;12.27;8.03;;;1.90;99.90;;;;;;5100018;28;20204;-47
2022/03/01 00:59:04;;;;;;;15.60;7.73;;;1.90;99.90;;;;;;5102996;28;20535;-47
2022/03/01 01:01:31;;;;;;;14.67;7.77;;;1.90;99.90;;;;;;5083857;28;20964;-46
2022/03/01 01:03:57;;;;;;;12.17;7.37;;;1.90;99.90;;;;;;5102481;28;20791;-45
2022/03/01 01:06:24;;;;;;;13.17;7.93;;;1.90;99.90;;;;;;5084797;28;20216;-48
2022/03/01 01:08:51;;;;;;;14.37;7.90;;;1.80;99.90;;;;;;5097407;28;20625;-47
2022/03/01 01:11:18;;;;;;;17.70;7.70;;;1.80;99.90;;;;;;5100360;28;20705;-45
2022/03/01 01:13:46;;;;;;;13.20;6.90;;;1.80;99.90;;;;;;5102060;28;20197;-49
2022/03/01 01:16:14;;;;;;;13.70;7.40;;;1.80;99.90;;;;;;5091946;28;20279;-49
2022/03/01 01:18:43;;;;;;;13.90;7.97;;;1.80;99.90;;;;;;5101089;28;20209;-50
2022/03/01 01:21:10;;;;;;;16.07;7.67;;;1.80;99.90;;;;;;5087606;28;20235;-47
2022/03/01 01:23:36;;;;;;;12.23;6.60;;;1.80;99.90;;;;;;5099831;28;20348;-49
2022/03/01 01:26:03;;;;;;;14.37;7.40;;;1.80;99.90;;;;;;5096883;28;20219;-49
2022/03/01 01:28:30;;;;;;;17.53;8.60;;;1.80;99.90;;;;;;5102483;28;20928;-46
2022/03/01 01:30:57;;;;;;;10.83;7.20;;;1.70;99.90;;;;;;5106172;28;20231;-47
2022/03/01 01:33:25;;;;;;;13.43;8.03;;;1.70;99.90;;;;;;5093564;28;20561;-46
2022/03/01 01:35:51;;;;;;;17.83;7.60;;;1.70;99.90;;;;;;5106051;28;20204;-47
2022/03/01 01:38:18;;;;;;;16.93;8.33;;;1.70;99.90;;;;;;5089533;28;20215;-48
2022/03/01 01:40:46;;;;;;;17.50;8.40;;;1.60;99.90;;;;;;5099705;28;20234;-47
2022/03/01 01:43:13;;;;;;;14.47;8.10;;;1.60;99.90;;;;;;5104123;28;20212;-46
2022/03/01 01:45:39;;;;;;;14.57;7.90;;;1.60;99.90;;;;;;5104088;28;20927;-48
2022/03/01 01:48:06;;;;;;;11.77;7.27;;;1.60;99.90;;;;;;5096740;28;20565;-48
2022/03/01 01:50:35;;;;;;;13.43;7.53;;;1.60;99.90;;;;;;5102811;28;20208;-46
2022/03/01 01:53:02;;;;;;;12.10;7.60;;;1.50;99.90;;;;;;5091839;28;20204;-47
2022/03/01 01:55:29;;;;;;;14.27;7.43;;;1.50;99.90;;;;;;5095627;28;20208;-47
2022/03/01 01:57:57;;;;;;;12.67;7.57;;;1.50;99.90;;;;;;5105588;28;20204;-44
2022/03/01 02:00:24;;;;;;;15.83;7.60;;;1.50;99.90;;;;;;5102028;28;20860;-45
2022/03/01 02:02:51;;;;;;;9.83;6.60;;;1.40;99.90;;;;;;5105929;28;20239;-43
2022/03/01 02:05:18;;;;;;;11.83;7.23;;;1.40;99.90;;;;;;5094295;28;20247;-46
2022/03/01 02:07:48;;;;;;;16.03;7.50;;;1.40;99.90;;;;;;5104078;28;20196;-50
2022/03/01 02:10:16;;;;;;;15.03;7.70;;;1.40;99.90;;;;;;5089369;28;20220;-46
2022/03/01 02:12:44;;;;;;;12.37;7.20;;;1.30;99.90;;;;;;5098566;28;20279;-49
2022/03/01 02:15:12;;;;;;;13.73;7.13;;;1.30;99.90;;;;;;5104265;28;20751;-44
2022/03/01 02:17:40;;;;;;;18.03;7.20;;;1.30;99.90;;;;;;5102864;28;20217;-46
2022/03/01 02:20:12;;;;;;;11.10;6.53;;;1.30;99.90;;;;;;5093363;28;20211;-49
2022/03/01 02:22:38;;;;;;;16.17;7.93;;;1.30;99.90;;;;;;5103114;28;20195;-51
2022/03/01 02:25:06;;;;;;;18.07;8.33;;;1.30;99.90;;;;;;5091376;28;20208;-48
2022/03/01 02:27:33;;;;;;;9.47;6.57;;;1.30;99.90;;;;;;5090718;27;20193;-47
2022/03/01 02:30:00;;;;;;;13.40;7.03;;;1.30;99.90;;;;;;5102019;28;20207;-44
2022/03/01 02:32:26;;;;;;;17.10;7.40;;;1.20;99.90;;;;;;5100957;28;20199;-44
2022/03/01 02:34:54;;;;;;;12.70;7.50;;;1.20;99.90;;;;;;5105113;28;20204;-45
2022/03/01 02:37:22;;;;;;;13.33;7.33;;;1.20;99.90;;;;;;5093043;28;20204;-46
2022/03/01 02:39:49;;;;;;;10.40;6.60;;;1.20;99.90;;;;;;5090907;28;20223;-45
2022/03/01 02:42:15;;;;;;;13.73;6.60;;;1.10;99.90;;;;;;5100693;28;20215;-47
2022/03/01 02:44:42;;;;;;;10.90;6.73;;;1.10;99.90;;;;;;5100404;28;20298;-44
2022/03/01 02:47:09;;;;;;;12.17;6.70;;;1.10;99.90;;;;;;5103844;28;20746;-45
2022/03/01 02:49:35;;;;;;;13.97;7.03;;;1.10;99.90;;;;;;5101917;28;20206;-47
2022/03/01 02:52:02;;;;;;;12.77;7.97;;;1.10;99.90;;;;;;5095979;28;20235;-48
2022/03/01 02:54:31;;;;;;;12.80;6.93;;;1.10;99.90;;;;;;5086770;28;20843;-51
2022/03/01 02:57:00;;;;;;;12.37;7.50;;;1.00;99.90;;;;;;5103945;28;20207;-48
2022/03/01 02:59:28;;;;;;;10.57;6.37;;;1.00;99.90;;;;;;5094916;28;20234;-47
2022/03/01 03:01:55;;;;;;;10.37;6.53;;;1.00;99.90;;;;;;5101418;28;20207;-45
2022/03/01 03:04:21;;;;;;;14.37;7.03;;;1.00;99.90;;;;;;5101103;28;20230;-47
2022/03/01 03:06:49;;;;;;;11.33;6.93;;;1.00;99.90;;;;;;5095179;28;20240;-45
2022/03/01 03:09:16;;;;;;;11.53;7.17;;;1.00;99.90;;;;;;5094275;28;20667;-49
2022/03/01 03:11:45;;;;;;;13.00;7.33;;;0.90;99.90;;;;;;5098528;28;20224;-50
2022/03/01 03:14:12;;;;;;;13.77;6.70;;;0.90;99.90;;;;;;5097621;28;20216;-48
2022/03/01 03:16:38;;;;;;;11.93;7.10;;;0.90;99.90;;;;;;5101543;28;20213;-46
2022/03/01 03:19:05;;;;;;;13.47;7.67;;;0.90;99.90;;;;;;5104448;28;20652;-46
2022/03/01 03:21:32;;;;;;;11.10;7.10;;;0.90;99.90;;;;;;5091646;28;20905;-47
2022/03/01 03:23:59;;;;;;;14.00;7.27;;;0.80;99.90;;;;;;5104204;28;20230;-46
2022/03/01 03:26:26;;;;;;;13.40;7.27;;;0.80;99.90;;;;;;5085960;27;20207;-49
2022/03/01 03:28:54;;;;;;;13.20;7.03;;;0.80;99.90;;;;;;5104143;28;20199;-48
2022/03/01 03:31:20;;;;;;;14.07;7.70;;;0.80;99.90;;;;;;5094913;28;20231;-50
2022/03/01 03:33:47;;;;;;;13.73;7.53;;;0.80;99.90;;;;;;5103511;28;20203;-47
2022/03/01 03:36:14;;;;;;;13.93;7.73;;;0.70;99.90;;;;;;5101942;28;20659;-48
2022/03/01 03:38:40;;;;;;;9.53;6.73;;;0.70;99.90;;;;;;5093204;28;20200;-49
2022/03/01 03:41:07;;;;;;;12.57;7.53;;;0.70;99.90;;;;;;5101596;28;20569;-49
2022/03/01 03:43:33;;;;;;;13.20;7.40;;;0.70;99.90;;;;;;5089542;28;20208;-45
2022/03/01 03:46:01;;;;;;;14.00;7.50;;;0.60;99.90;;;;;;5098401;28;20211;-46
2022/03/01 03:48:28;;;;;;;11.60;6.47;;;0.60;99.90;;;;;;5099809;28;20191;-49
2022/03/01 03:50:55;;;;;;;12.20;6.90;;;0.60;99.90;;;;;;5103210;28;20219;-47
2022/03/01 03:53:22;;;;;;;11.40;6.83;;;0.60;99.90;;;;;;5091633;28;20230;-48
2022/03/01 03:55:49;;;;;;;11.47;7.00;;;0.60;99.90;;;;;;5103501;28;20207;-45
2022/03/01 03:58:16;;;;;;;15.10;6.60;;;0.60;99.90;;;;;;5086876;28;20211;-48
2022/03/01 04:00:44;;;;;;;12.23;7.57;;;0.60;99.90;;;;;;5096414;27;20232;-45
2022/03/01 04:03:12;;;;;;;12.43;6.57;;;0.50;99.90;;;;;;5102385;28;20200;-45
2022/03/01 04:05:39;;;;;;;14.10;8.03;;;0.50;99.90;;;;;;5101318;28;20829;-45
2022/03/01 04:08:06;;;;;;;13.57;6.87;;;0.50;99.90;;;;;;5102937;28;20205;-49
2022/03/01 04:10:32;;;;;;;11.53;6.90;;;0.50;99.90;;;;;;5091843;28;20211;-46
2022/03/01 04:12:59;;;;;;;15.73;7.13;;;0.50;99.90;;;;;;5089423;28;20700;-46
2022/03/01 04:15:26;;;;;;;12.83;6.47;;;0.40;99.90;;;;;;5098956;28;20202;-48
2022/03/01 04:17:52;;;;;;;10.67;6.90;;;0.40;99.90;;;;;;5097630;28;20678;-50
2022/03/01 04:20:21;;;;;;;12.23;6.87;;;0.40;99.90;;;;;;5100364;28;20222;-47
2022/03/01 04:22:48;;;;;;;13.57;7.07;;;0.40;99.90;;;;;;5103010;28;20200;-44
2022/03/01 04:25:15;;;;;;;11.33;6.83;;;0.40;99.90;;;;;;5092380;28;20218;-45
2022/03/01 04:27:42;;;;;;;13.73;7.13;;;0.40;99.90;;;;;;5101356;28;20756;-46
2022/03/01 04:30:12;;;;;;;11.80;7.03;;;0.30;99.90;;;;;;5088087;28;20203;-47
2022/03/01 04:32:40;;;;;;;10.00;7.13;;;0.30;99.90;;;;;;5093484;28;20203;-51
2022/03/01 04:35:08;;;;;;;12.90;7.40;;;0.30;99.90;;;;;;5103132;28;20194;-48
2022/03/01 04:37:36;;;;;;;14.00;6.63;;;0.30;99.90;;;;;;5100032;28;20935;-50
2022/03/01 04:40:04;;;;;;;11.63;6.43;;;0.30;99.90;;;;;;5087950;28;20204;-49
2022/03/01 04:42:31;;;;;;;10.87;6.53;;;0.20;99.90;;;;;;5098452;28;20759;-49
2022/03/01 04:44:58;;;;;;;11.77;6.93;;;0.20;99.90;;;;;;5088819;28;20206;-44
2022/03/01 04:47:24;;;;;;;15.53;7.47;;;0.20;99.90;;;;;;5098170;28;20198;-46
2022/03/01 04:49:51;;;;;;;10.30;6.27;;;0.20;99.90;;;;;;5097625;28;20206;-43
2022/03/01 04:52:18;;;;;;;11.37;5.87;;;0.20;99.90;;;;;;5100546;28;20382;-45
2022/03/01 04:54:46;;;;;;;14.30;6.57;;;0.20;99.90;;;;;;5093589;28;20205;-44
2022/03/01 04:57:13;;;;;;;13.33;7.50;;;0.20;99.90;;;;;;5100704;28;20689;-49
2022/03/01 04:59:40;;;;;;;10.80;6.10;;;0.10;99.90;;;;;;5095539;28;20269;-47
2022/03/01 05:02:07;;;;;;;11.27;6.77;;;0.10;99.90;;;;;;5081303;28;20557;-45
2022/03/01 05:04:33;;;;;;;9.17;6.23;;;0.10;99.90;;;;;;5087586;27;20246;-50
2022/03/01 05:07:00;;;;;;;13.00;7.23;;;0.10;99.90;;;;;;5105468;27;20197;-45
2022/03/01 05:09:27;;;;;;;10.73;6.77;;;0.10;99.90;;;;;;5102535;27;20501;-44
2022/03/01 05:11:55;;;;;;;11.03;7.03;;;0.10;99.90;;;;;;5097629;28;20227;-46
2022/03/01 05:14:22;;;;;;;10.87;6.93;;;0.00;99.90;;;;;;5102703;28;20928;-44
2022/03/01 05:16:48;;;;;;;13.30;7.43;;;0.00;99.90;;;;;;5088111;28;20211;-44
2022/03/01 05:19:15;;;;;;;15.33;6.57;;;0.00;99.90;;;;;;5096543;28;20228;-48
2022/03/01 05:21:42;;;;;;;9.83;6.63;;;0.00;99.90;;;;;;5100708;28;20677;-45
2022/03/01 05:24:09;;;;;;;11.73;7.50;;;0.00;99.90;;;;;;5102793;28;20219;-49
2022/03/01 05:26:36;;;;;;;12.87;6.60;;;-0.10;99.90;;;;;;5092755;28;20209;-51
2022/03/01 05:29:04;;;;;;;15.23;7.33;;;-0.10;99.90;;;;;;5099772;28;20532;-48
2022/03/01 05:31:31;;;;;;;13.47;7.63;;;-0.10;99.90;;;;;;5105351;28;20212;-46
2022/03/01 05:33:58;;;;;;;12.07;7.10;;;-0.10;99.90;;;;;;5089562;28;20680;-46
2022/03/01 05:36:24;;;;;;;12.60;6.80;;;-0.10;99.90;;;;;;5096950;28;20194;-47
2022/03/01 05:38:52;;;;;;;12.73;6.90;;;-0.10;99.90;;;;;;5103482;27;20200;-45
2022/03/01 05:41:19;;;;;;;13.33;7.10;;;-0.20;99.90;;;;;;5090450;28;20238;-44
2022/03/01 05:43:46;;;;;;;14.00;7.20;;;-0.20;99.90;;;;;;5113218;27;20201;-44
2022/03/01 05:46:14;;;;;;;11.27;6.97;;;-0.20;99.90;;;;;;5101907;27;20208;-49
2022/03/01 05:48:41;;;;;;;14.87;7.47;;;-0.20;99.90;;;;;;5089004;27;20282;-46
2022/03/01 05:51:08;;;;;;;12.17;7.00;;;-0.20;99.90;;;;;;5095986;28;20222;-51
2022/03/01 05:53:35;;;;;;;16.40;8.03;;;-0.20;99.90;;;;;;5105155;28;20209;-45
2022/03/01 05:56:02;;;;;;;12.43;7.57;;;-0.20;99.90;;;;;;5100589;28;20207;-51
2022/03/01 05:58:28;;;;;;;10.87;6.73;;;-0.20;99.90;;;;;;5095124;28;20438;-45
2022/03/01 06:00:55;;;;;;;11.60;6.37;;;-0.30;99.90;;;;;;5104159;28;20295;-49
2022/03/01 06:03:23;;;;;;;13.57;7.40;;;-0.30;99.90;;;;;;5090928;27;20214;-45
2022/03/01 06:05:50;;;;;;;12.27;7.53;;;-0.30;99.90;;;;;;5107611;27;20279;-45
2022/03/01 06:08:17;;;;;;;11.37;7.47;;;-0.30;99.90;;;;;;5095083;28;21073;-47
2022/03/01 06:10:43;;;;;;;12.77;7.17;;;-0.30;99.90;;;;;;5099858;27;20228;-49
2022/03/01 06:13:10;;;;;;;17.33;7.97;;;-0.30;99.90;;;;;;5096441;27;20209;-48
2022/03/01 06:15:37;;;;;;;11.27;6.20;;;-0.30;99.90;;;;;;5097638;27;20190;-45
2022/03/01 06:18:04;;;;;;;11.83;7.10;;;-0.40;99.90;;;;;;5106564;27;20209;-43
2022/03/01 06:20:34;;;;;;;15.03;8.27;;;-0.40;99.90;;;;;;5092834;27;20215;-47
2022/03/01 06:23:00;;;;;;;11.57;7.33;;;-0.40;99.90;;;;;;5099787;27;20201;-49
2022/03/01 06:25:27;;;;;;;13.20;6.90;;;-0.40;99.90;;;;;;5086896;27;20968;-46
2022/03/01 06:27:54;;;;;;;17.50;8.00;;;-0.40;99.90;;;;;;5100110;27;20209;-49
2022/03/01 06:30:21;;;;;;;15.17;8.30;;;-0.40;99.90;;;;;;5088841;27;20232;-44
2022/03/01 06:32:47;;;;;;;13.63;7.50;;;-0.30;99.90;;;;;;5111110;27;20201;-48
2022/03/01 06:35:14;;;;;;;14.60;7.90;;;-0.30;99.90;;;;;;5087383;28;20201;-46
2022/03/01 06:37:44;;;;;;;12.17;7.67;;;-0.30;99.90;;;;;;5095189;27;20196;-44
2022/03/01 06:40:12;;;;;;;15.53;8.10;;;-0.30;99.90;;;;;;5105915;27;20209;-45
2022/03/01 06:42:39;;;;;;;14.10;7.57;;;-0.30;99.90;;;;;;5104339;27;20205;-47
2022/03/01 06:45:07;;;;;;;14.70;8.07;;;-0.30;99.90;;;;;;5100674;27;20216;-48
2022/03/01 06:47:34;;;;;;;14.57;8.43;;;-0.20;99.90;;;;;;5104729;27;20247;-46
2022/03/01 06:50:01;;;;;;;12.37;7.43;;;-0.20;99.90;;;;;;5079435;28;20205;-49
2022/03/01 06:52:28;;;;;;;12.77;7.70;;;-0.20;99.90;;;;;;5097222;28;20209;-46
2022/03/01 06:54:56;;;;;;;12.40;7.23;;;-0.20;99.90;;;;;;5095738;28;20543;-51
2022/03/01 06:57:23;;;;;;;13.13;7.87;;;-0.10;99.90;;;;;;5096761;28;20191;-48
2022/03/01 06:59:53;;;;;;;13.87;7.77;;;-0.10;99.90;;;;;;5090323;28;20207;-46
2022/03/01 07:02:19;;;;;;;11.77;7.50;;;-0.10;99.90;;;;;;5095168;28;20228;-45
2022/03/01 07:04:46;;;;;;;13.30;7.80;;;0.00;99.90;;;;;;5104075;28;20216;-44
2022/03/01 07:07:13;;;;;;;14.47;8.30;;;0.00;99.90;;;;;;5075242;28;20214;-45
2022/03/01 07:09:40;;;;;;;15.83;8.23;;;0.10;99.90;;;;;;5104734;28;20278;-46
2022/03/01 07:12:09;;;;;;;15.60;7.83;;;0.10;99.90;;;;;;5101000;28;20217;-53
2022/03/01 07:14:37;;;;;;;12.67;7.53;;;0.20;99.90;;;;;;5104340;28;20185;-47
2022/03/01 07:17:04;;;;;;;13.77;8.87;;;0.20;99.90;;;;;;5093191;28;20208;-46
2022/03/01 07:19:31;;;;;;;13.50;7.60;;;0.30;99.90;;;;;;5100301;28;20974;-45
2022/03/01 07:21:57;;;;;;;13.23;7.70;;;0.40;99.90;;;;;;5085649;28;20234;-47
2022/03/01 07:24:24;;;;;;;14.73;8.17;;;0.40;99.90;;;;;;5093502;28;20226;-50
2022/03/01 07:27:13;;;;;;;13.27;8.10;;;0.50;99.90;;;;;;5099496;28;20206;-46
2022/03/01 07:29:41;;;;;;;14.73;7.63;;;0.50;99.90;;;;;;5096933;28;20689;-47
2022/03/01 07:32:09;;;;;;;13.93;8.17;;;0.60;99.90;;;;;;5080772;28;20229;-48
2022/03/01 07:34:36;;;;;;;14.33;8.47;;;0.60;99.90;;;;;;5098244;28;20198;-45
2022/03/01 07:37:04;;;;;;;12.00;8.20;;;0.70;99.90;;;;;;5084658;28;20209;-49
2022/03/01 07:39:31;;;;;;;14.53;7.60;;;0.80;99.90;;;;;;5086142;28;20203;-49
2022/03/01 07:41:58;;;;;;;16.33;8.63;;;0.90;99.90;;;;;;5098660;28;20217;-48
2022/03/01 07:44:26;;;;;;;14.03;8.10;;;0.90;99.90;;;;;;5099719;28;20187;-50
2022/03/01 07:46:53;;;;;;;14.47;8.37;;;1.00;99.90;;;;;;5089634;28;20205;-54
2022/03/01 07:49:19;;;;;;;16.53;8.63;;;0.90;99.90;;;;;;5097375;28;20936;-46
2022/03/01 07:51:46;;;;;;;11.83;7.83;;;1.00;99.90;;;;;;5098832;28;20240;-45
2022/03/01 07:54:13;;;;;;;13.53;7.67;;;0.90;99.90;;;;;;5084784;28;20920;-44
2022/03/01 07:56:40;;;;;;;16.53;8.20;;;1.00;99.90;;;;;;5102682;28;20257;-46
2022/03/01 07:59:07;;;;;;;14.43;8.13;;;1.00;99.90;;;;;;5099753;28;20195;-47
2022/03/01 08:01:35;;;;;;;14.00;7.83;;;1.20;99.90;;;;;;5102819;28;20695;-45
2022/03/01 08:04:02;;;;;;;14.93;7.60;;;1.30;99.90;;;;;;5088719;28;20204;-45
2022/03/01 08:06:29;;;;;;;12.13;7.03;;;1.40;99.90;;;;;;5097415;28;20235;-49
2022/03/01 08:08:56;;;;;;;15.03;8.43;;;1.50;99.90;;;;;;5089656;28;20212;-50
2022/03/01 08:11:22;;;;;;;15.10;9.07;;;1.50;99.90;;;;;;5093029;28;20222;-51
2022/03/01 08:13:49;;;;;;;16.43;8.27;;;1.70;99.90;;;;;;5093535;28;20202;-44
2022/03/01 08:16:16;;;;;;;17.20;8.00;;;1.80;99.90;;;;;;5093394;28;20183;-47
2022/03/01 08:18:44;;;;;;;13.70;7.87;;;1.90;99.90;;;;;;5093358;28;20208;-45
2022/03/01 08:21:11;;;;;;;13.07;7.87;;;2.00;99.90;;;;;;5094714;28;20344;-47
2022/03/01 08:23:38;;;;;;;16.17;8.37;;;2.10;99.90;;;;;;5096716;28;20199;-47
2022/03/01 08:26:05;;;;;;;13.40;7.67;;;2.20;99.90;;;;;;5085634;28;20552;-47
2022/03/01 08:28:32;;;;;;;15.80;9.33;;;2.30;99.90;;;;;;5101652;28;20210;-50
2022/03/01 08:30:59;;;;;;;17.60;8.17;;;2.30;99.90;;;;;;5100239;28;20592;-49
2022/03/01 08:33:25;;;;;;;14.47;7.87;;;2.30;99.90;;;;;;5088799;28;20286;-45
2022/03/01 08:35:55;;;;;;;13.67;8.57;;;2.30;99.90;;;;;;5093700;28;20288;-47
2022/03/01 08:38:22;;;;;;;12.30;7.63;;;2.20;99.90;;;;;;5100242;28;20199;-44
2022/03/01 08:40:49;;;;;;;13.03;8.70;;;2.10;99.90;;;;;;5091196;27;20727;-45
2022/03/01 08:43:16;;;;;;;17.23;8.73;;;2.00;99.90;;;;;;5095298;28;20187;-48
2022/03/01 08:45:44;;;;;;;11.80;8.27;;;2.00;99.90;;;;;;5109599;27;20303;-46
2022/03/01 08:48:11;;;;;;;16.80;7.70;;;2.00;99.90;;;;;;5097399;27;20296;-47
2022/03/01 08:50:38;;;;;;;14.30;8.13;;;2.00;99.90;;;;;;5106101;28;20235;-45
2022/03/01 08:53:06;;;;;;;18.70;8.57;;;2.00;99.90;;;;;;5099045;28;20192;-45
2022/03/01 08:55:34;;;;;;;16.50;9.03;;;2.10;99.90;;;;;;5092684;28;20192;-45
2022/03/01 08:58:01;;;;;;;14.80;8.73;;;2.10;99.90;;;;;;5103191;28;20211;-47
2022/03/01 09:00:28;;;;;;;13.37;8.50;;;2.10;99.90;;;;;;5100523;28;20348;-46
2022/03/01 09:02:55;;;;;;;15.63;8.60;;;2.20;99.90;;;;;;5102265;27;20677;-47
2022/03/01 09:05:23;;;;;;;16.20;8.83;;;2.30;99.90;;;;;;5098993;28;20227;-50
2022/03/01 09:07:49;;;;;;;15.37;8.87;;;2.40;99.90;;;;;;5106098;28;20234;-45
2022/03/01 09:10:21;;;;;;;15.13;8.43;;;2.50;99.90;;;;;;5102675;28;20219;-45
2022/03/01 09:12:49;;;;;;;12.20;7.77;;;2.60;99.90;;;;;;5085921;28;20228;-47
2022/03/01 09:15:17;;;;;;;13.57;8.37;;;2.70;99.90;;;;;;5097047;28;20185;-45
2022/03/01 09:17:43;;;;;;;14.27;7.73;;;2.70;99.90;;;;;;5099432;28;20205;-49
2022/03/01 09:20:11;;;;;;;15.40;9.07;;;2.80;99.90;;;;;;5092023;28;20235;-49
2022/03/01 09:22:38;;;;;;;14.47;9.20;;;2.80;99.90;;;;;;5105170;28;20204;-49
2022/03/01 09:25:06;;;;;;;15.87;9.27;;;2.90;99.90;;;;;;5102658;27;20680;-49
2022/03/01 09:27:34;;;;;;;17.50;9.63;;;2.90;99.90;;;;;;5091842;28;20216;-53
2022/03/01 09:30:01;;;;;;;14.37;8.83;;;2.90;99.90;;;;;;5103647;28;20193;-51
2022/03/01 09:32:28;;;;;;;18.03;9.57;;;3.00;99.90;;;;;;5096128;28;20205;-51
2022/03/01 09:34:55;;;;;;;15.30;8.30;;;3.20;99.90;;;;;;5094521;28;20208;-54
2022/03/01 09:37:22;;;;;;;16.97;9.03;;;3.30;99.90;;;;;;5103216;28;20197;-48
2022/03/01 09:39:49;;;;;;;17.70;8.87;;;3.40;99.90;;;;;;5097968;28;20673;-51
2022/03/01 09:42:17;;;;;;;16.77;9.67;;;3.50;99.90;;;;;;5088942;28;21643;-51
2022/03/01 09:44:46;;;;;;;15.67;8.93;;;3.60;99.90;;;;;;5095491;28;20881;-52
2022/03/01 09:47:12;;;;;;;14.77;8.80;;;3.60;99.90;;;;;;5098217;28;20445;-54
2022/03/01 09:49:39;;;;;;;14.53;9.40;;;3.70;99.90;;;;;;5097226;28;20692;-52
2022/03/01 09:52:06;;;;;;;14.97;9.13;;;3.80;99.90;;;;;;5100160;28;20215;-53
2022/03/01 09:54:33;;;;;;;18.63;9.30;;;3.90;99.90;;;;;;5093862;28;20197;-52
2022/03/01 09:57:00;;;;;;;14.87;9.10;;;3.90;99.90;;;;;;5094563;28;20200;-53
2022/03/01 09:59:27;;;;;;;18.27;10.00;;;4.00;99.90;;;;;;5097915;28;20209;-49
2022/03/01 10:01:55;;;;;;;22.10;10.17;;;4.10;99.90;;;;;;5097897;28;20228;-52
2022/03/01 10:04:22;;;;;;;13.57;9.23;;;4.10;99.90;;;;;;5100138;28;20189;-46
2022/03/01 10:06:50;;;;;;;14.57;9.83;;;4.10;99.90;;;;;;5095240;28;20213;-47
2022/03/01 10:09:19;;;;;;;16.63;9.27;;;4.20;99.90;;;;;;5101449;28;20193;-50
2022/03/01 10:11:47;;;;;;;16.83;9.63;;;4.30;99.90;;;;;;5102360;28;20725;-48
2022/03/01 10:14:14;;;;;;;18.53;10.00;;;4.30;99.90;;;;;;5084893;28;20919;-48
2022/03/01 10:16:42;;;;;;;19.77;10.57;;;4.40;99.90;;;;;;5104495;28;20196;-49
2022/03/01 10:19:19;;;;;;;23.40;10.47;;;4.50;99.90;;;;;;5100950;28;20667;-53
2022/03/01 10:21:48;;;;;;;16.70;10.00;;;4.60;99.90;;;;;;5090460;28;20225;-47
2022/03/01 10:24:16;;;;;;;15.00;9.80;;;4.50;99.90;;;;;;5099437;28;20243;-48
2022/03/01 10:26:44;;;;;;;18.50;10.63;;;4.60;99.90;;;;;;5101208;28;20267;-51
2022/03/01 10:29:11;;;;;;;17.97;9.70;;;4.60;99.90;;;;;;5087744;28;20204;-49
2022/03/01 10:31:39;;;;;;;13.50;9.50;;;4.70;99.90;;;;;;5104181;28;20825;-50
2022/03/01 10:34:08;;;;;;;16.30;9.73;;;4.80;99.90;;;;;;5100544;28;20201;-54
2022/03/01 10:36:44;;;;;;;19.20;10.07;;;4.80;99.90;;;;;;5093714;28;20208;-51
2022/03/01 10:39:14;;;;;;;16.50;9.90;;;4.80;99.90;;;;;;5093886;28;20189;-50
2022/03/01 10:41:43;;;;;;;16.90;10.23;;;4.90;99.90;;;;;;5095202;28;20221;-46
2022/03/01 10:44:15;;;;;;;15.63;9.33;;;5.00;99.90;;;;;;5087410;28;21058;-48
2022/03/01 10:46:46;;;;;;;18.77;10.20;;;5.00;99.90;;;;;;5104093;28;20210;-51
2022/03/01 10:49:15;;;;;;;21.07;9.87;;;5.00;99.90;;;;;;5100313;28;20186;-53
2022/03/01 10:51:50;;;;;;;14.60;9.83;;;5.00;99.90;;;;;;5091449;28;20232;-50
2022/03/01 10:54:27;;;;;;;18.90;9.77;;;5.00;99.90;;;;;;5094518;28;20190;-53
2022/03/01 10:56:55;;;;;;;15.70;9.70;;;5.10;99.90;;;;;;5101011;28;20197;-54
2022/03/01 10:59:23;;;;;;;16.40;10.10;;;5.10;99.90;;;;;;5082775;28;20201;-56
2022/03/01 11:01:49;;;;;;;16.03;10.40;;;5.20;99.90;;;;;;5101760;28;20216;-57
2022/03/01 11:04:16;;;;;;;17.67;9.60;;;5.30;99.90;;;;;;5088395;28;20966;-54
2022/03/01 11:06:44;;;;;;;17.93;10.47;;;5.40;99.90;;;;;;5095084;28;20217;-53
2022/03/01 11:09:13;;;;;;;15.97;10.07;;;5.60;99.90;;;;;;5096832;28;20208;-57
2022/03/01 11:11:41;;;;;;;19.67;10.13;;;5.70;99.90;;;;;;5098804;28;20715;-52
2022/03/01 11:14:09;;;;;;;17.67;10.13;;;5.70;99.90;;;;;;5085242;28;20654;-56
2022/03/01 11:16:51;;;;;;;16.17;10.40;;;5.70;99.90;;;;;;5101538;28;20205;-52
2022/03/01 11:19:41;;;;;;;15.53;9.60;;;5.70;99.90;;;;;;5096618;28;20206;-51
2022/03/01 11:22:19;;;;;;;14.60;9.90;;;5.80;99.90;;;;;;5080473;28;20238;-53
2022/03/01 11:24:48;;;;;;;19.47;10.77;;;5.80;99.90;;;;;;5100795;28;20209;-52
2022/03/01 11:27:19;;;;;;;16.93;10.13;;;6.00;99.90;;;;;;5095017;27;20231;-53
2022/03/01 11:29:46;;;;;;;16.03;8.93;;;6.10;99.90;;;;;;5104392;28;20197;-51
2022/03/01 11:32:15;;;;;;;19.47;10.30;;;6.20;99.90;;;;;;5082279;28;20217;-50
2022/03/01 11:34:42;;;;;;;15.53;10.23;;;6.30;99.90;;;;;;5097607;28;20224;-50
2022/03/01 11:37:15;;;;;;;14.47;9.77;;;6.30;99.90;;;;;;5090037;28;21144;-55
2022/03/01 11:39:42;;;;;;;17.00;9.73;;;6.40;99.90;;;;;;5091936;28;20681;-53
2022/03/01 11:42:14;;;;;;;17.37;10.60;;;6.30;99.90;;;;;;5093684;28;20217;-50
2022/03/01 11:44:48;;;;;;;14.43;9.07;;;6.40;99.90;;;;;;5097972;28;20258;-51
2022/03/01 11:47:24;;;;;;;13.27;9.13;;;6.40;99.90;;;;;;5084979;28;20812;-53
2022/03/01 11:49:51;;;;;;;18.60;10.10;;;6.50;99.90;;;;;;5102493;28;20288;-57
2022/03/01 11:52:19;;;;;;;14.70;9.73;;;6.60;99.90;;;;;;5098015;28;20225;-54
2022/03/01 11:54:48;;;;;;;16.73;9.73;;;6.60;99.90;;;;;;5089699;28;20207;-55
2022/03/01 11:57:18;;;;;;;18.17;10.07;;;6.80;99.90;;;;;;5094812;28;20984;-53
2022/03/01 11:59:45;;;;;;;17.70;10.83;;;6.80;99.90;;;;;;5097077;28;20522;-56
2022/03/01 12:02:13;;;;;;;16.03;9.83;;;6.80;99.90;;;;;;5084596;28;20216;-51
2022/03/01 12:04:47;;;;;;;15.03;9.67;;;6.90;99.90;;;;;;5103129;28;20204;-49
2022/03/01 12:07:18;;;;;;;18.33;11.17;;;7.00;99.90;;;;;;5097322;28;20309;-54
2022/03/01 12:09:55;;;;;;;15.70;10.00;;;7.00;99.90;;;;;;5093587;28;20272;-54
2022/03/01 12:12:32;;;;;;;14.53;9.53;;;7.00;99.90;;;;;;5090868;28;20193;-54
2022/03/01 12:15:00;;;;;;;16.33;9.47;;;7.00;99.90;;;;;;5099214;28;20257;-57
2022/03/01 12:17:27;;;;;;;18.93;10.40;;;7.10;99.90;;;;;;5101270;28;20200;-50
2022/03/01 12:20:00;;;;;;;15.77;9.73;;;7.10;99.90;;;;;;5086126;28;20677;-57
2022/03/01 12:22:28;;;;;;;15.80;9.97;;;7.10;99.90;;;;;;5102309;28;20201;-54
2022/03/01 12:24:57;;;;;;;15.07;9.77;;;7.10;99.90;;;;;;5097004;28;20219;-56
2022/03/01 12:27:30;;;;;;;14.73;9.47;;;7.20;99.90;;;;;;5085981;28;20224;-55
2022/03/01 12:30:02;;;;;;;16.47;10.13;;;7.20;99.90;;;;;;5100383;28;20241;-54
2022/03/01 12:32:29;;;;;;;16.47;9.70;;;7.20;99.90;;;;;;5096204;28;20636;-56
2022/03/01 12:35:01;;;;;;;16.43;10.47;;;7.20;99.90;;;;;;5084832;28;20213;-53
2022/03/01 12:37:29;;;;;;;17.93;10.30;;;7.20;99.90;;;;;;5098594;28;20681;-51
2022/03/01 12:39:56;;;;;;;14.43;9.67;;;7.20;99.90;;;;;;5096865;28;20203;-56
2022/03/01 12:42:29;;;;;;;13.77;9.27;;;7.20;99.90;;;;;;5091534;28;20314;-54
2022/03/01 12:44:56;;;;;;;16.40;10.23;;;7.20;99.90;;;;;;5094166;28;20201;-54
2022/03/01 12:47:23;;;;;;;15.57;9.97;;;7.20;99.90;;;;;;5100620;28;20897;-53